Back to Top

My Weather Underground Personal Weather Station Historical Data with Graphs...

Delerius Weather Station Historical Data
 
Daily Summary for December 02, 2020 Units:  English    Metric   Both
Daily Weekly Monthly Yearly
  Current: High: Low: Average:
Temperature: 39 °F 46.8 °F 35.2 °F 41.2 °F
Dew Point: 36.3 °F 44.4 °F 33.1 °F 38.8 °F
Humidity: 90% 96% 84% 91%
Wind Speed: 8.7mph 13.7mph 0mph 7mph
Wind Gust: 12mph 20mph - -
WindSSW - - SW
Pressure: 29.8 in 30.3 in 29.8 in -
Precipitation: 0 in      
 
 
Tabular Data for December 02, 2020
Time Temperature Dew Point Pressure Wind Wind Speed Wind Gust Humidity Rainfall Rate (Hourly) solar
00:04 38.5 °F 35.8 °F 30.3 in Calm   3 mph 90% 0 in 0 W/m2
00:09 38.7 °F 36 °F 30.3 in SSW 2.5 mph 5 mph 90% 0 in 0 W/m2
00:14 38.8 °F 36.1 °F 30.3 in SW 4.7 mph 6 mph 90% 0 in 0 W/m2
00:19 38.8 °F 36.1 °F 30.3 in WSW 4.7 mph 6 mph 90% 0 in 0 W/m2
00:24 38.7 °F 36 °F 30.3 in WSW 5 mph 6 mph 90% 0 in 0 W/m2
00:29 38.7 °F 36 °F 30.3 in WSW 3.4 mph 5 mph 90% 0 in 0 W/m2
00:34 38.7 °F 36 °F 30.3 in WSW 0.4 mph 4 mph 90% 0 in 0 W/m2
00:39 38.5 °F 35.8 °F 30.3 in WSW 1 mph 4 mph 90% 0 in 0 W/m2
00:44 38.5 °F 36 °F 30.3 in SW 3.5 mph 6 mph 90.4% 0 in 0 W/m2
00:49 38.5 °F 36.1 °F 30.3 in SW 4.6 mph 6 mph 91% 0 in 0 W/m2
00:54 38.5 °F 36 °F 30.3 in SW 5 mph 7 mph 90.7% 0 in 0 W/m2
00:59 38.3 °F 35.6 °F 30.3 in SW 5.7 mph 7 mph 90% 0 in 0 W/m2
01:04 38.1 °F 35.4 °F 30.3 in SW 4.5 mph 6 mph 90% 0 in 0 W/m2
01:09 38.1 °F 35.4 °F 30.3 in SW 3.1 mph 5 mph 90% 0 in 0 W/m2
01:14 37.9 °F 35.4 °F 30.3 in South 0.9 mph 5 mph 90.2% 0 in 0 W/m2
01:19 37.9 °F 35.4 °F 30.2 in South 3 mph 5 mph 90.5% 0 in 0 W/m2
01:24 37.9 °F 35.4 °F 30.2 in SSW 0.9 mph 4 mph 91% 0 in 0 W/m2
01:29 37.9 °F 35.2 °F 30.2 in South 1 mph 6 mph 90.3% 0 in 0 W/m2
01:34 37.6 °F 34.9 °F 30.2 in SE 3 mph 6 mph 90% 0 in 0 W/m2
01:39 37.4 °F 34.9 °F 30.2 in SSE 3.2 mph 6 mph 90.8% 0 in 0 W/m2
01:44 37 °F 34.7 °F 30.2 in SE 2.5 mph 5 mph 91% 0 in 0 W/m2
01:49 36.9 °F 34.3 °F 30.2 in SSE 2.5 mph 5 mph 91% 0 in 0 W/m2
01:54 36.7 °F 34.3 °F 30.2 in South 1.6 mph 5 mph 91.1% 0 in 0 W/m2
01:59 36.7 °F 34.5 °F 30.2 in SSW 4.1 mph 7 mph 92% 0 in 0 W/m2
02:04 36.9 °F 34.9 °F 30.2 in SSW 3 mph 6 mph 92% 0 in 0 W/m2
02:09 37.2 °F 35.1 °F 30.2 in SW 2.8 mph 6 mph 92.3% 0 in 0 W/m2
02:14 37.6 °F 35.6 °F 30.2 in SW 1.4 mph 5 mph 92.2% 0 in 0 W/m2
02:19 37.9 °F 35.8 °F 30.2 in SW 3.7 mph 7 mph 92% 0 in 0 W/m2
02:24 38.5 °F 36.1 °F 30.2 in SW 2 mph 7 mph 91.5% 0 in 0 W/m2
02:29 38.5 °F 36 °F 30.2 in SSW 1.1 mph 7 mph 90.7% 0 in 0 W/m2
02:34 38.3 °F 35.6 °F 30.2 in South 4.5 mph 7 mph 90% 0 in 0 W/m2
02:39 38.5 °F 35.6 °F 30.2 in South 1.1 mph 7 mph 89.8% 0 in 0 W/m2
02:44 37.9 °F 35.1 °F 30.2 in ESE 0.9 mph 4 mph 89.2% 0 in 0 W/m2
02:49 37.6 °F 34.7 °F 30.2 in ESE 0.3 mph 2 mph 89% 0 in 0 W/m2
02:54 37.2 °F 34.5 °F 30.2 in Calm   1 mph 89.7% 0 in 0 W/m2
02:59 37.2 °F 34.5 °F 30.2 in Calm   1 mph 90% 0 in 0 W/m2
03:04 37.2 °F 34.5 °F 30.2 in SSE 0.6 mph 4 mph 90% 0 in 0 W/m2
03:09 37 °F 34.5 °F 30.2 in SSE 1.4 mph 4 mph 90% 0 in 0 W/m2
03:14 36.7 °F 34 °F 30.2 in ESE 2.7 mph 6 mph 90% 0 in 0 W/m2
03:19 36 °F 33.4 °F 30.2 in ESE 2.9 mph 6 mph 90% 0 in 0 W/m2
03:24 35.6 °F 33.1 °F 30.2 in ESE 3.5 mph 6 mph 90.7% 0 in 0 W/m2
03:29 35.4 °F 33.3 °F 30.2 in SE 3.4 mph 7 mph 91.5% 0 in 0 W/m2
03:34 35.4 °F 33.3 °F 30.2 in SE 1.6 mph 5 mph 92% 0 in 0 W/m2
03:39 35.2 °F 33.1 °F 30.2 in ESE 0.6 mph 3 mph 92% 0 in 0 W/m2
03:44 35.2 °F 33.1 °F 30.2 in ESE 1.5 mph 4 mph 92.2% 0 in 0 W/m2
03:49 35.2 °F 33.4 °F 30.2 in ESE 1.7 mph 4 mph 93% 0 in 0 W/m2
03:54 35.6 °F 33.6 °F 30.2 in SSW 1.2 mph 10 mph 93% 0 in 0 W/m2
03:59 36.7 °F 35.1 °F 30.2 in SSW 8.3 mph 11 mph 93.9% 0 in 0 W/m2
04:04 37.8 °F 36.1 °F 30.2 in SSW 8.8 mph 11 mph 93.6% 0 in 0 W/m2
04:09 38.3 °F 36.3 °F 30.2 in SW 8 mph 11 mph 92% 0 in 0 W/m2
04:14 38.5 °F 36.1 °F 30.2 in SSW 8.4 mph 11 mph 91% 0 in 0 W/m2
04:19 38.5 °F 36 °F 30.2 in SSW 8.1 mph 11 mph 90.8% 0 in 0 W/m2
04:24 38.5 °F 35.8 °F 30.2 in South 8.1 mph 10 mph 90% 0 in 0 W/m2
04:29 38.5 °F 35.8 °F 30.2 in South 8.6 mph 12 mph 90% 0 in 0 W/m2
04:34 38.7 °F 36 °F 30.2 in SSW 8 mph 11 mph 89.9% 0 in 0 W/m2
04:39 38.8 °F 36 °F 30.2 in South 6.2 mph 9 mph 89% 0 in 0 W/m2
04:44 39 °F 36 °F 30.2 in South 5.8 mph 8 mph 89% 0 in 0 W/m2
04:49 39.2 °F 36.1 °F 30.2 in SSE 4.1 mph 8 mph 88.9% 0 in 0 W/m2
04:54 39 °F 35.6 °F 30.2 in ESE 2.5 mph 6 mph 87.4% 0 in 0 W/m2
04:59 38.1 °F 34.7 °F 30.2 in ESE 0.9 mph 6 mph 87.3% 0 in 0 W/m2
05:04 37.8 °F 34.5 °F 30.2 in SE 0.6 mph 5 mph 88.5% 0 in 0 W/m2
05:09 37.6 °F 34.7 °F 30.2 in South 2.3 mph 10 mph 89.4% 0 in 0 W/m2
05:14 38.3 °F 35.8 °F 30.2 in SSW 6.1 mph 12 mph 90.9% 0 in 0 W/m2
05:19 39.2 °F 36.5 °F 30.2 in SSW 6.3 mph 12 mph 90.3% 0 in 0 W/m2
05:24 39.6 °F 36.7 °F 30.1 in SSW 7.6 mph 10 mph 89.4% 0 in 0 W/m2
05:29 39.6 °F 36.7 °F 30.1 in South 7.4 mph 12 mph 89% 0 in 0 W/m2
05:34 39.6 °F 36.7 °F 30.1 in South 8.8 mph 13 mph 89% 0 in 0 W/m2
05:39 39.6 °F 36.7 °F 30.1 in South 8.5 mph 13 mph 89% 0 in 0 W/m2
05:44 39.6 °F 36.5 °F 30.1 in South 7.6 mph 13 mph 89% 0 in 0 W/m2
05:49 39.4 °F 36.5 °F 30.1 in South 9.3 mph 13 mph 89.2% 0 in 0 W/m2
05:54 39.4 °F 36.7 °F 30.1 in SSW 9.3 mph 13 mph 90% 0 in 0 W/m2
05:59 39.6 °F 37 °F 30.1 in SSW 8.3 mph 12 mph 90.4% 0 in 0 W/m2
06:04 39.9 °F 37.4 °F 30.1 in SSW 7.8 mph 12 mph 91% 0 in 0 W/m2
06:09 40.3 °F 37.8 °F 30.1 in SSW 9.9 mph 13 mph 91% 0 in 0 W/m2
06:14 40.5 °F 37.9 °F 30.1 in SSW 10.7 mph 14 mph 91% 0 in 0 W/m2
06:19 40.6 °F 38.1 °F 30.1 in SW 11.7 mph 15 mph 91% 0 in 0 W/m2
06:24 40.8 °F 38.5 °F 30.1 in SSW 11.4 mph 15 mph 91% 0 in 0 W/m2
06:29 41.2 °F 38.8 °F 30.1 in SSW 10.9 mph 14 mph 91% 0 in 0 W/m2
06:34 41.4 °F 39 °F 30.1 in SSW 12.5 mph 16 mph 91% 0 in 0 W/m2
06:39 41.5 °F 39.2 °F 30.1 in SSW 12.2 mph 16 mph 91% 0 in 0 W/m2
06:44 41.7 °F 39.4 °F 30.1 in SSW 11.3 mph 15 mph 91% 0 in 0 W/m2
06:49 41.7 °F 39.4 °F 30.1 in SW 11.2 mph 14 mph 91% 0 in 0 W/m2
06:54 41.7 °F 39.4 °F 30.1 in SSW 10.6 mph 13 mph 91% 0 in 0 W/m2
06:59 41.7 °F 39.4 °F 30.1 in SSW 9.4 mph 13 mph 91% 0 in 0 W/m2
07:04 41.7 °F 39.6 °F 30.1 in SSW 9.1 mph 12 mph 91.7% 0 in 0 W/m2
07:09 41.7 °F 39.6 °F 30.1 in SSW 9 mph 12 mph 92% 0 in 0 W/m2
07:14 41.7 °F 39.6 °F 30.1 in SSW 8.8 mph 12 mph 92% 0 in 0 W/m2
07:19 41.7 °F 39.6 °F 30.1 in SSW 8.1 mph 11 mph 92% 0 in 0 W/m2
07:24 41.7 °F 39.6 °F 30.1 in SSW 8.9 mph 12 mph 92% 0 in 0 W/m2
07:29 41.7 °F 39.6 °F 30.1 in SSW 9.8 mph 12 mph 92% 0 in 0 W/m2
07:34 41.7 °F 39.7 °F 30.1 in SSW 9.3 mph 13 mph 92.4% 0 in 0 W/m2
07:39 41.9 °F 39.9 °F 30.1 in SSW 9.6 mph 13 mph 93% 0 in 0 W/m2
07:44 41.9 °F 40.1 °F 30.1 in SSW 9.6 mph 12 mph 93% 0 in 0 W/m2
07:49 42.1 °F 40.1 °F 30.1 in SSW 8.9 mph 12 mph 93% 0 in 0 W/m2
07:54 42.1 °F 40.3 °F 30.1 in SSW 10.4 mph 14 mph 93% 0 in 0 W/m2
07:59 42.1 °F 40.3 °F 30.1 in SSW 10.6 mph 13 mph 93% 0 in 0 W/m2
08:04 42.1 °F 40.3 °F 30.1 in SW 10.3 mph 13 mph 93% 0 in 0 W/m2
08:09 42.1 °F 40.3 °F 30.1 in SW 9.4 mph 13 mph 93% 0 in 0 W/m2
08:14 42.1 °F 40.3 °F 30.1 in SW 9.3 mph 13 mph 93% 0 in 0 W/m2
08:19 42.1 °F 40.3 °F 30.1 in SW 9.7 mph 13 mph 93% 0 in 0 W/m2
08:24 42.1 °F 40.3 °F 30.1 in SW 9.7 mph 13 mph 93% 0 in 0 W/m2
08:29 41.9 °F 40.1 °F 30.1 in SW 10.5 mph 13 mph 93% 0 in 0 W/m2
08:34 41.9 °F 40.3 °F 30.1 in SW 10.1 mph 14 mph 94% 0 in 5 W/m2
08:39 41.9 °F 40.3 °F 30.1 in SW 10.6 mph 14 mph 94% 0 in 7 W/m2
08:44 42.1 °F 40.5 °F 30.1 in SW 9.9 mph 13 mph 94.2% 0 in 7 W/m2
08:49 42.1 °F 40.8 °F 30.1 in SW 10.4 mph 14 mph 95% 0 in 11 W/m2
08:54 42.1 °F 40.8 °F 30.1 in SW 11 mph 14 mph 95% 0 in 11 W/m2
08:59 42.1 °F 40.8 °F 30.1 in SSW 10.6 mph 14 mph 95% 0 in 16 W/m2
09:04 42.3 °F 40.8 °F 30.1 in SSW 9.8 mph 13 mph 95% 0 in 16 W/m2
09:09 42.3 °F 40.8 °F 30.1 in SSW 8.8 mph 12 mph 95% 0 in 12 W/m2
09:14 42.3 °F 41 °F 30.1 in SW 9 mph 11 mph 95% 0 in 16 W/m2
09:19 42.4 °F 41.2 °F 30.1 in SSW 8.4 mph 11 mph 95% 0 in 21 W/m2
09:24 42.6 °F 41.2 °F 30.1 in SW 7.3 mph 10 mph 95% 0 in 23 W/m2
09:29 42.6 °F 41.4 °F 30.1 in SSW 7.5 mph 9 mph 95% 0 in 40 W/m2
09:34 42.6 °F 41.5 °F 30.1 in SW 6.2 mph 9 mph 95.9% 0 in 35 W/m2
09:39 42.6 °F 41.5 °F 30.1 in SSW 6 mph 8 mph 96% 0 in 19 W/m2
09:44 42.6 °F 41.5 °F 30.1 in SSW 6.7 mph 9 mph 96% 0 in 18 W/m2
09:49 42.6 °F 41.5 °F 30.1 in SSW 7.3 mph 9 mph 96% 0 in 21 W/m2
09:54 42.6 °F 41.5 °F 30 in SSW 6.7 mph 9 mph 96% 0 in 19 W/m2
09:59 42.6 °F 41.5 °F 30 in SSW 6.9 mph 9 mph 96% 0 in 23 W/m2
10:04 42.6 °F 41.5 °F 30 in SSW 7 mph 9 mph 96% 0 in 26 W/m2
10:09 42.6 °F 41.5 °F 30 in SSW 8.3 mph 12 mph 96% 0 in 30 W/m2
10:14 42.6 °F 41.5 °F 30 in SSW 9.3 mph 13 mph 96% 0 in 32 W/m2
10:19 42.6 °F 41.5 °F 30 in SSW 10.6 mph 13 mph 96% 0 in 37 W/m2
10:24 42.6 °F 41.7 °F 30 in SSW 10.4 mph 14 mph 96% 0 in 46 W/m2
10:29 43 °F 41.9 °F 30 in SSW 11.9 mph 16 mph 96% 0 in 44 W/m2
10:34 43 °F 41.9 °F 30 in SW 11.5 mph 15 mph 96% 0 in 33 W/m2
10:39 43 °F 41.9 °F 30 in SW 11.4 mph 15 mph 96% 0 in 23 W/m2
10:44 43 °F 41.9 °F 30 in SW 10.7 mph 15 mph 96% 0 in 26 W/m2
10:49 43.2 °F 42.1 °F 30 in SW 10 mph 12 mph 96% 0 in 26 W/m2
10:54 43.2 °F 42.1 °F 30 in SW 8.6 mph 12 mph 96% 0 in 28 W/m2
10:59 43.3 °F 42.3 °F 30 in SW 9.2 mph 11 mph 96% 0 in 30 W/m2
11:04 43.3 °F 42.4 °F 30 in SW 8.3 mph 11 mph 96% 0 in 30 W/m2
11:09 43.5 °F 42.4 °F 30 in SW 8.9 mph 11 mph 96% 0 in 28 W/m2
11:14 43.5 °F 42.4 °F 30 in SW 8.7 mph 12 mph 96% 0 in 46 W/m2
11:19 43.5 °F 42.4 °F 30 in SW 9.4 mph 12 mph 95.3% 0 in 47 W/m2
11:24 43.7 °F 42.6 °F 30 in SSW 8.3 mph 10 mph 96% 0 in 42 W/m2
11:29 43.7 °F 42.6 °F 30 in SSW 8 mph 10 mph 96% 0 in 88 W/m2
11:34 43.9 °F 42.8 °F 30 in SSW 8 mph 11 mph 96% 0 in 90 W/m2
11:39 44.1 °F 43 °F 30 in SSW 9.4 mph 13 mph 96% 0 in 76 W/m2
11:44 44.2 °F 43.2 °F 30 in SSW 8.3 mph 12 mph 96% 0 in 74 W/m2
11:49 44.2 °F 43.3 °F 30 in SSW 7.9 mph 11 mph 96% 0 in 77 W/m2
11:54 44.4 °F 43.5 °F 30 in SSW 8.8 mph 12 mph 96% 0 in 102 W/m2
11:59 44.8 °F 43.5 °F 30 in SW 10.1 mph 13 mph 95.5% 0 in 102 W/m2
12:04 45 °F 43.7 °F 30 in SW 8.9 mph 13 mph 95.7% 0 in 60 W/m2
12:09 45 °F 43.5 °F 30 in SSW 7.7 mph 11 mph 95% 0 in 40 W/m2
12:14 45 °F 43.5 °F 30 in SSW 8.6 mph 11 mph 95% 0 in 33 W/m2
12:19 45 °F 43.5 °F 30 in SW 7.1 mph 9 mph 95% 0 in 33 W/m2
12:24 45 °F 43.5 °F 30 in SW 6.5 mph 12 mph 95% 0 in 28 W/m2
12:29 45 °F 43.5 °F 30 in SW 8.1 mph 13 mph 95% 0 in 21 W/m2
12:34 45 °F 43.5 °F 30 in SW 7.3 mph 10 mph 95% 0 in 23 W/m2
12:39 45 °F 43.5 °F 30 in SW 7.6 mph 11 mph 95% 0 in 21 W/m2
12:44 45 °F 43.5 °F 30 in SW 7.9 mph 11 mph 95% 0 in 21 W/m2
12:49 45 °F 43.5 °F 30 in SW 9.2 mph 13 mph 95% 0 in 74 W/m2
12:54 45 °F 43.9 °F 29.9 in SW 12.2 mph 15 mph 95.5% 0 in 93 W/m2
12:59 45.1 °F 44.1 °F 29.9 in SW 12.8 mph 16 mph 96% 0 in 86 W/m2
13:04 45.1 °F 44.1 °F 29.9 in SW 12 mph 15 mph 96% 0 in 70 W/m2
13:09 45.1 °F 44.1 °F 29.9 in SW 13.3 mph 18 mph 96% 0 in 63 W/m2
13:14 45.3 °F 44.2 °F 29.9 in SW 12.6 mph 18 mph 96% 0 in 56 W/m2
13:19 45.3 °F 44.1 °F 29.9 in SW 12.6 mph 16 mph 95.6% 0 in 63 W/m2
13:24 45.3 °F 44.1 °F 29.9 in SW 12.8 mph 16 mph 95.3% 0 in 76 W/m2
13:29 45.5 °F 44.4 °F 29.9 in SW 13 mph 18 mph 95.8% 0 in 76 W/m2
13:34 45.7 °F 44.4 °F 29.9 in SW 12.8 mph 18 mph 95.5% 0 in 72 W/m2
13:39 45.9 °F 44.4 °F 29.9 in SW 11.1 mph 14 mph 95% 0 in 74 W/m2
13:44 45.9 °F 44.4 °F 29.9 in SW 10.1 mph 14 mph 95% 0 in 67 W/m2
13:49 45.9 °F 44.4 °F 29.9 in WSW 9.3 mph 14 mph 95% 0 in 58 W/m2
13:54 45.9 °F 44.4 °F 29.9 in WSW 9.2 mph 14 mph 94.4% 0 in 65 W/m2
13:59 46.2 °F 44.4 °F 29.9 in West 8.1 mph 13 mph 93.3% 0 in 76 W/m2
14:04 46.6 °F 44.2 °F 29.9 in West 8.7 mph 14 mph 91.5% 0 in 83 W/m2
14:09 46.8 °F 43.9 °F 29.9 in West 9.1 mph 14 mph 89.9% 0 in 77 W/m2
14:14 46.8 °F 43.5 °F 29.9 in West 9.6 mph 15 mph 88% 0 in 74 W/m2
14:19 46.8 °F 43 °F 29.9 in West 11.2 mph 16 mph 86.7% 0 in 65 W/m2
14:24 46.8 °F 42.8 °F 29.9 in West 12.2 mph 18 mph 85.7% 0 in 51 W/m2
14:29 46.8 °F 42.4 °F 29.9 in West 12.7 mph 18 mph 85% 0 in 51 W/m2
14:34 46.8 °F 42.4 °F 29.9 in West 12.4 mph 18 mph 85% 0 in 132 W/m2
14:39 46.8 °F 42.3 °F 29.9 in WNW 13.4 mph 20 mph 84.3% 0 in 125 W/m2
14:44 46.8 °F 42.3 °F 29.9 in WNW 12.1 mph 18 mph 84% 0 in 83 W/m2
14:49 46.6 °F 42.1 °F 29.9 in WNW 12.4 mph 16 mph 84% 0 in 65 W/m2
14:54 46.4 °F 41.7 °F 29.9 in WNW 13.7 mph 20 mph 84% 0 in 63 W/m2
14:59 46.2 °F 41.7 °F 29.9 in WNW 12.5 mph 18 mph 84% 0 in 67 W/m2
15:04 46 °F 41.5 °F 29.9 in WNW 11.2 mph 15 mph 84% 0 in 58 W/m2
15:09 46 °F 41.5 °F 29.9 in WNW 11.7 mph 16 mph 84.2% 0 in 46 W/m2
15:14 45.9 °F 41.5 °F 29.9 in West 11.1 mph 19 mph 84.7% 0 in 26 W/m2
15:19 45.9 °F 41.5 °F 29.9 in West 9.8 mph 19 mph 85% 0 in 14 W/m2
15:24 45.7 °F 41.4 °F 29.9 in West 7.8 mph 13 mph 85% 0 in 16 W/m2
15:29 45.7 °F 41.5 °F 29.9 in West 5.9 mph 10 mph 85.7% 0 in 12 W/m2
15:34 45.3 °F 41.4 °F 29.9 in West 3.4 mph 7 mph 86% 0 in 7 W/m2
15:39 45 °F 41 °F 29.9 in West 4.7 mph 10 mph 86% 0 in 7 W/m2
15:44 45 °F 40.8 °F 29.9 in West 6.2 mph 10 mph 85.7% 0 in 5 W/m2
15:49 44.6 °F 40.6 °F 29.9 in West 6.3 mph 12 mph 85.7% 0 in 5 W/m2
15:54 44.2 °F 40.3 °F 29.9 in West 9 mph 12 mph 85.5% 0 in 0 W/m2
15:59 44.1 °F 40.1 °F 29.9 in WNW 8.1 mph 12 mph 86% 0 in 0 W/m2
16:04 43.5 °F 39.6 °F 29.9 in WNW 7.2 mph 10 mph 86% 0 in 0 W/m2
16:09 43.2 °F 39.4 °F 29.9 in WNW 6.5 mph 9 mph 86.6% 0 in 0 W/m2
16:14 42.8 °F 39.2 °F 29.9 in West 8 mph 11 mph 87% 0 in 0 W/m2
16:19 42.6 °F 39 °F 29.9 in West 8.3 mph 11 mph 87% 0 in 0 W/m2
16:24 42.4 °F 38.8 °F 29.9 in West 9.2 mph 12 mph 87.1% 0 in 0 W/m2
16:29 42.8 °F 39.2 °F 29.9 in West 8.9 mph 12 mph 87.2% 0 in 0 W/m2
16:34 42.8 °F 39.2 °F 29.9 in West 7.5 mph 12 mph 87% 0 in 0 W/m2
16:39 43.2 °F 39.4 °F 29.9 in West 6 mph 12 mph 86.5% 0 in 0 W/m2
16:44 42.8 °F 38.8 °F 29.9 in WSW 5.1 mph 7 mph 86% 0 in 0 W/m2
16:49 42.3 °F 38.7 °F 29.9 in West 4.5 mph 8 mph 87% 0 in 0 W/m2
16:54 41.9 °F 38.7 °F 29.9 in West 3.9 mph 8 mph 88% 0 in 0 W/m2
16:59 41.7 °F 38.3 °F 29.9 in West 3.7 mph 7 mph 88% 0 in 0 W/m2
17:04 41.5 °F 38.3 °F 29.9 in West 3 mph 7 mph 88% 0 in 0 W/m2
17:09 41.5 °F 38.3 °F 29.9 in West 4 mph 8 mph 88% 0 in 0 W/m2
17:14 41.4 °F 38.1 °F 29.9 in WSW 4.5 mph 7 mph 88% 0 in 0 W/m2
17:19 41.4 °F 37.9 °F 29.9 in WSW 3 mph 6 mph 87.9% 0 in 0 W/m2
17:24 41.2 °F 37.6 °F 29.9 in West 2.5 mph 6 mph 87% 0 in 0 W/m2
17:29 41.2 °F 37.8 °F 29.9 in West 1.4 mph 5 mph 87.5% 0 in 0 W/m2
17:34 41.2 °F 37.8 °F 29.9 in West 2 mph 5 mph 87.6% 0 in 0 W/m2
17:39 40.8 °F 37.4 °F 29.9 in West 1.2 mph 4 mph 87.1% 0 in 0 W/m2
17:44 40.6 °F 37.4 °F 29.9 in West 1.6 mph 5 mph 88% 0 in 0 W/m2
17:49 40.5 °F 37.2 °F 29.9 in WSW 3.5 mph 6 mph 88% 0 in 0 W/m2
17:54 40.3 °F 37 °F 29.9 in WSW 4.3 mph 6 mph 88% 0 in 0 W/m2
17:59 39.9 °F 36.7 °F 29.9 in WSW 4 mph 6 mph 88% 0 in 0 W/m2
18:04 39.7 °F 36.7 °F 29.9 in WSW 2.7 mph 6 mph 88.6% 0 in 0 W/m2
18:09 39.6 °F 36.7 °F 29.9 in SW 5.2 mph 8 mph 89% 0 in 0 W/m2
18:14 39.7 °F 37 °F 29.8 in SW 6.2 mph 8 mph 90% 0 in 0 W/m2
18:19 39.7 °F 37 °F 29.9 in WSW 5.8 mph 8 mph 90% 0 in 0 W/m2
18:24 39.9 °F 37.2 °F 29.8 in SW 5.5 mph 8 mph 90% 0 in 0 W/m2
18:29 39.9 °F 37 °F 29.8 in WSW 5.3 mph 8 mph 89.2% 0 in 0 W/m2
18:34 39.9 °F 37 °F 29.8 in West 2.3 mph 7 mph 89.2% 0 in 0 W/m2
18:39 39.9 °F 37 °F 29.8 in West 2.4 mph 6 mph 89.6% 0 in 0 W/m2
18:44 40.1 °F 37.2 °F 29.8 in WSW 2.4 mph 5 mph 89.2% 0 in 0 W/m2
18:49 39.9 °F 36.9 °F 29.8 in WSW 2.6 mph 5 mph 89% 0 in 0 W/m2
18:54 39.7 °F 36.9 °F 29.8 in WSW 0.6 mph 3 mph 89% 0 in 0 W/m2
18:59 39.7 °F 36.9 °F 29.8 in Calm   1 mph 89% 0 in 0 W/m2
19:04 39.6 °F 36.7 °F 29.8 in SW 2.5 mph 6 mph 89% 0 in 0 W/m2
19:09 39.4 °F 36.3 °F 29.8 in SW 5.8 mph 7 mph 89% 0 in 0 W/m2
19:14 38.8 °F 36 °F 29.8 in SSW 6 mph 7 mph 89.2% 0 in 0 W/m2
19:19 38.7 °F 36 °F 29.8 in SW 6.1 mph 8 mph 90% 0 in 0 W/m2
19:24 38.7 °F 36.3 °F 29.8 in SW 6 mph 8 mph 90.6% 0 in 0 W/m2
19:29 39 °F 36.5 °F 29.8 in SW 5.5 mph 8 mph 91% 0 in 0 W/m2
19:34 39.4 °F 37 °F 29.8 in SW 5.6 mph 8 mph 91% 0 in 0 W/m2
19:39 39.4 °F 37 °F 29.8 in SW 5.5 mph 7 mph 91% 0 in 0 W/m2
19:44 39.4 °F 37 °F 29.8 in SSW 6 mph 8 mph 91% 0 in 0 W/m2
19:49 39.4 °F 37 °F 29.8 in SSW 6 mph 7 mph 91% 0 in 0 W/m2
19:54 39 °F 36.7 °F 29.8 in SSW 6.5 mph 9 mph 91% 0 in 0 W/m2
19:59 39 °F 36.7 °F 29.8 in SW 6 mph 8 mph 91% 0 in 0 W/m2
20:04 39 °F 36.7 °F 29.8 in SSW 6.6 mph 9 mph 91% 0 in 0 W/m2
20:09 39.2 °F 36.7 °F 29.8 in SSW 8.1 mph 10 mph 91% 0 in 0 W/m2
20:14 39.4 °F 37 °F 29.8 in SW 7.6 mph 11 mph 91% 0 in 0 W/m2
20:19 39.4 °F 37 °F 29.8 in SW 8 mph 10 mph 91% 0 in 0 W/m2
20:24 39.4 °F 37 °F 29.8 in SW 8.8 mph 13 mph 91% 0 in 0 W/m2
20:29 39.6 °F 37 °F 29.8 in SW 9.3 mph 13 mph 90.8% 0 in 0 W/m2
20:34 39.4 °F 37 °F 29.8 in SW 8.3 mph 11 mph 91% 0 in 0 W/m2
20:39 39.6 °F 37.2 °F 29.8 in SW 10 mph 13 mph 91% 0 in 0 W/m2
20:44 39.6 °F 36.9 °F 29.8 in SW 9.7 mph 12 mph 90.1% 0 in 0 W/m2
20:49 39.4 °F 36.7 °F 29.8 in SW 8.9 mph 12 mph 90% 0 in 0 W/m2
20:54 39.4 °F 36.7 °F 29.8 in SW 9.6 mph 12 mph 90% 0 in 0 W/m2
20:59 39.4 °F 36.7 °F 29.8 in SW 10.1 mph 13 mph 90% 0 in 0 W/m2
21:04 39 °F 36.3 °F 29.8 in SSW 8.7 mph 12 mph 90% 0 in 0 W/m2
North Lincolnshire Weather
Compliments of Weather Underground - 2 mb

Data updates at regular intervals.